Time;durP1;ratioP1;P1;durP2;ratioP2;P2;SDS_P1;SDS_P2;PMS_P1;PMS_P2;Temp;Humidity;BMP_temperature;BMP_pressure;BME280_temperature;BME280_humidity;BME280_pressure;Samples;Min_cycle;Max_cycle;Signal;HPM_P1;HPM_P2
2023/05/25 00:03:04;;;;;;;9.38;3.20;;;;;;;;;;10619496;27;20024;-78
2023/05/25 00:08:07;;;;;;;7.77;2.47;;;;;;;;;;10617700;27;20039;-79
2023/05/25 00:13:11;;;;;;;6.30;2.38;;;;;;;;;;10617276;27;20031;-78
2023/05/25 00:18:13;;;;;;;;;;;;;;;;;;10612190;27;20103;-80
2023/05/25 00:23:16;;;;;;;10.98;2.80;;;;;;;;;;10581990;27;19973;-79
2023/05/25 00:28:20;;;;;;;6.43;2.70;;;;;;;;;;10562708;27;20051;-79
2023/05/25 00:33:23;;;;;;;9.45;2.58;;;;;;;;;;10574579;27;20351;-80
2023/05/25 00:38:26;;;;;;;15.20;3.00;;;;;;;;;;10574124;27;20075;-80
2023/05/25 00:43:30;;;;;;;6.05;2.58;;;;;;;;;;10572040;27;20166;-80
2023/05/25 00:48:33;;;;;;;8.75;3.17;;;;;;;;;;10571490;27;20043;-80
2023/05/25 00:53:36;;;;;;;12.93;2.70;;;;;;;;;;10553170;27;20126;-79
2023/05/25 00:58:42;;;;;;;6.03;2.45;;;;;;;;;;10569972;27;20048;-80
2023/05/25 01:03:52;;;;;;;11.13;2.53;;;;;;;;;;10570505;27;20043;-79
2023/05/25 01:09:01;;;;;;;8.73;2.90;;;;;;;;;;10564930;27;20066;-79
2023/05/25 01:14:06;;;;;;;7.40;2.30;;;;;;;;;;10574293;27;20101;-78
2023/05/25 01:19:09;;;;;;;10.55;2.55;;;;;;;;;;10564007;27;20039;-79
2023/05/25 01:24:21;;;;;;;9.18;2.83;;;;;;;;;;10573459;27;20442;-79
2023/05/25 01:29:25;;;;;;;7.95;3.10;;;;;;;;;;10561788;27;20039;-80
2023/05/25 01:34:28;;;;;;;6.88;2.55;;;;;;;;;;10566150;27;20172;-79
2023/05/25 01:39:32;;;;;;;8.13;3.17;;;;;;;;;;10556255;27;20042;-79
2023/05/25 01:44:35;;;;;;;7.82;2.45;;;;;;;;;;10571707;27;20044;-80
2023/05/25 01:49:43;;;;;;;8.68;3.22;;;;;;;;;;10572942;27;20088;-79
2023/05/25 01:54:48;;;;;;;6.93;3.13;;;;;;;;;;10553857;27;20048;-79
2023/05/25 01:59:52;;;;;;;11.95;3.58;;;;;;;;;;10557006;27;21502;-79
2023/05/25 02:04:55;;;;;;;7.97;2.92;;;;;;;;;;10555817;27;20040;-79
2023/05/25 02:09:59;;;;;;;11.02;3.60;;;;;;;;;;10573549;27;20059;-79
2023/05/25 02:15:03;;;;;;;10.95;3.88;;;;;;;;;;10568488;27;20512;-79
2023/05/25 02:20:07;;;;;;;13.10;4.23;;;;;;;;;;10565443;27;21799;-78
2023/05/25 02:25:11;;;;;;;14.10;4.50;;;;;;;;;;10574729;27;20302;-78
2023/05/25 02:30:14;;;;;;;12.25;4.80;;;;;;;;;;10563672;27;20040;-78
2023/05/25 02:35:17;;;;;;;15.30;5.27;;;;;;;;;;10560441;27;20111;-79
2023/05/25 02:40:22;;;;;;;17.77;5.20;;;;;;;;;;10575693;28;20122;-78
2023/05/25 02:45:24;;;;;;;18.08;6.35;;;;;;;;;;10565043;28;20066;-78
2023/05/25 02:50:27;;;;;;;13.20;4.75;;;;;;;;;;10575177;28;21191;-78
2023/05/25 02:55:32;;;;;;;12.85;5.97;;;;;;;;;;10561775;28;20058;-79
2023/05/25 03:00:35;;;;;;;15.50;5.63;;;;;;;;;;10570396;28;20066;-80
2023/05/25 03:05:38;;;;;;;21.35;7.15;;;;;;;;;;10566296;28;20044;-79
2023/05/25 03:10:42;;;;;;;15.30;6.00;;;;;;;;;;10562851;28;20139;-79
2023/05/25 03:15:45;;;;;;;14.18;5.60;;;;;;;;;;10559243;28;20079;-79
2023/05/25 03:20:47;;;;;;;12.85;4.53;;;;;;;;;;10563156;28;20120;-79
2023/05/25 03:25:52;;;;;;;17.35;5.93;;;;;;;;;;10571745;28;20039;-80
2023/05/25 03:30:55;;;;;;;11.82;4.82;;;;;;;;;;10570341;28;20059;-80
2023/05/25 03:35:58;;;;;;;15.53;6.10;;;;;;;;;;10565403;28;21381;-79
2023/05/25 03:41:02;;;;;;;14.93;6.33;;;;;;;;;;10567323;27;20036;-79
2023/05/25 03:46:05;;;;;;;17.83;5.72;;;;;;;;;;10581247;27;20062;-78
2023/05/25 03:51:08;;;;;;;15.13;5.63;;;;;;;;;;10581858;27;20043;-81
2023/05/25 03:56:12;;;;;;;13.43;5.40;;;;;;;;;;10577445;27;20043;-79
2023/05/25 04:01:15;;;;;;;11.45;5.55;;;;;;;;;;10578958;27;20039;-80
2023/05/25 04:06:18;;;;;;;16.33;6.20;;;;;;;;;;10567899;27;20133;-80
2023/05/25 04:11:27;;;;;;;11.65;5.13;;;;;;;;;;10573687;27;20059;-80
2023/05/25 04:16:34;;;;;;;12.43;5.07;;;;;;;;;;10574911;27;20524;-80
2023/05/25 04:21:37;;;;;;;11.02;4.55;;;;;;;;;;10575979;27;20055;-78
2023/05/25 04:26:42;;;;;;;12.03;5.10;;;;;;;;;;10578914;27;20123;-78
2023/05/25 04:31:46;;;;;;;12.60;3.88;;;;;;;;;;10570841;27;20063;-78
2023/05/25 04:36:48;;;;;;;12.10;5.85;;;;;;;;;;10570609;27;20068;-79
2023/05/25 04:41:52;;;;;;;16.45;5.47;;;;;;;;;;10560063;27;20042;-78
2023/05/25 04:46:55;;;;;;;15.57;5.82;;;;;;;;;;10573107;27;20480;-78
2023/05/25 04:51:58;;;;;;;13.82;5.93;;;;;;;;;;10578443;27;20032;-79
2023/05/25 04:57:02;;;;;;;13.80;5.50;;;;;;;;;;10560190;27;20031;-78
2023/05/25 05:02:05;;;;;;;13.38;5.22;;;;;;;;;;10582566;27;20407;-79
2023/05/25 05:07:07;;;;;;;13.13;5.25;;;;;;;;;;10574580;27;20045;-79
2023/05/25 05:12:12;;;;;;;17.03;5.87;;;;;;;;;;10575813;27;20057;-78
2023/05/25 05:17:16;;;;;;;14.93;6.82;;;;;;;;;;10577785;27;20069;-79
2023/05/25 05:22:19;;;;;;;17.20;6.18;;;;;;;;;;10553792;27;20039;-80
2023/05/25 05:27:25;;;;;;;13.07;5.03;;;;;;;;;;10580143;27;20035;-79
2023/05/25 05:32:28;;;;;;;13.55;5.40;;;;;;;;;;10534967;27;20495;-80
2023/05/25 05:37:30;;;;;;;13.33;5.77;;;;;;;;;;10564966;27;20098;-81
2023/05/25 05:42:35;;;;;;;11.40;5.67;;;;;;;;;;10557022;27;20076;-82
2023/05/25 05:47:37;;;;;;;14.38;5.70;;;;;;;;;;10563815;27;20048;-82
2023/05/25 05:52:40;;;;;;;13.20;5.43;;;;;;;;;;10556389;27;20101;-81
2023/05/25 05:57:45;;;;;;;11.65;5.57;;;;;;;;;;10566176;27;20055;-81
2023/05/25 06:02:47;;;;;;;11.40;5.45;;;;;;;;;;10573536;27;20051;-81
2023/05/25 06:07:51;;;;;;;13.70;6.37;;;;;;;;;;10565064;27;20061;-81
2023/05/25 06:12:55;;;;;;;14.00;5.77;;;;;;;;;;10561673;27;20303;-81
2023/05/25 06:17:57;;;;;;;19.25;5.95;;;;;;;;;;10566986;27;20114;-82
2023/05/25 06:23:00;;;;;;;15.00;5.07;;;;;;;;;;10556866;27;20051;-82
2023/05/25 06:28:06;;;;;;;17.00;5.75;;;;;;;;;;10581899;27;20035;-80
2023/05/25 06:33:09;;;;;;;14.00;6.43;;;;;;;;;;10561026;27;20031;-80
2023/05/25 06:38:11;;;;;;;17.37;5.77;;;;;;;;;;10571956;28;20353;-79
2023/05/25 06:43:16;;;;;;;16.40;6.13;;;;;;;;;;10557939;28;20516;-80
2023/05/25 06:48:19;;;;;;;15.18;6.00;;;;;;;;;;10542948;28;20463;-78
2023/05/25 06:53:21;;;;;;;14.17;5.90;;;;;;;;;;10561270;28;20605;-79
2023/05/25 06:58:26;;;;;;;11.77;5.05;;;;;;;;;;10556103;28;21702;-79
2023/05/25 07:03:29;;;;;;;15.25;6.78;;;;;;;;;;10550475;28;20043;-79
2023/05/25 07:08:32;;;;;;;14.13;5.53;;;;;;;;;;10556281;28;20050;-79
2023/05/25 07:13:36;;;;;;;18.10;6.40;;;;;;;;;;10557972;28;20055;-80
2023/05/25 07:18:39;;;;;;;8.88;4.80;;;;;;;;;;10566820;27;20043;-80
2023/05/25 07:23:42;;;;;;;11.70;5.80;;;;;;;;;;10565131;27;20151;-80
2023/05/25 07:28:46;;;;;;;13.82;5.72;;;;;;;;;;10546699;27;20097;-81
2023/05/25 07:33:49;;;;;;;12.13;5.72;;;;;;;;;;10567046;27;20177;-79
2023/05/25 07:38:53;;;;;;;13.93;5.78;;;;;;;;;;10557400;27;20135;-80
2023/05/25 07:43:55;;;;;;;;;;;;;;;;;;10574681;27;20399;-80
2023/05/25 07:49:02;;;;;;;14.98;6.05;;;;;;;;;;10556433;27;20407;-80
2023/05/25 07:54:04;;;;;;;16.85;6.25;;;;;;;;;;10566197;27;20043;-80
2023/05/25 07:59:07;;;;;;;13.18;5.55;;;;;;;;;;10564478;27;20543;-79
2023/05/25 08:04:12;;;;;;;15.55;6.28;;;;;;;;;;10570087;27;20203;-79
2023/05/25 08:09:15;;;;;;;11.07;4.80;;;;;;;;;;10574440;27;20139;-79
2023/05/25 08:14:17;;;;;;;12.90;5.43;;;;;;;;;;10561905;27;20051;-79
2023/05/25 08:19:21;;;;;;;12.13;5.22;;;;;;;;;;10575720;27;20043;-79
2023/05/25 08:24:28;;;;;;;7.38;3.60;;;;;;;;;;10569436;27;20046;-81
2023/05/25 08:29:31;;;;;;;12.10;5.50;;;;;;;;;;10582756;27;20488;-79
2023/05/25 08:34:34;;;;;;;9.83;4.30;;;;;;;;;;10557317;27;20039;-79
2023/05/25 08:39:37;;;;;;;12.77;5.90;;;;;;;;;;10583901;27;20063;-80
2023/05/25 08:44:40;;;;;;;10.88;5.45;;;;;;;;;;10571837;27;20134;-80
2023/05/25 08:49:44;;;;;;;13.07;4.77;;;;;;;;;;10579202;27;20039;-79
2023/05/25 08:54:49;;;;;;;12.07;4.65;;;;;;;;;;10567849;27;20661;-82
2023/05/25 08:59:52;;;;;;;14.15;6.00;;;;;;;;;;10579267;27;20069;-82
2023/05/25 09:04:58;;;;;;;9.68;4.32;;;;;;;;;;10579185;27;20050;-82
2023/05/25 09:10:02;;;;;;;10.52;4.22;;;;;;;;;;10565220;27;20070;-81
2023/05/25 09:15:06;;;;;;;10.27;4.95;;;;;;;;;;10565898;27;20075;-81
2023/05/25 09:20:09;;;;;;;;;;;;;;;;;;10566018;27;20044;-82
2023/05/25 09:25:15;;;;;;;11.68;5.35;;;;;;;;;;10565707;27;19927;-81
2023/05/25 09:30:17;;;;;;;6.50;3.63;;;;;;;;;;10576074;27;20054;-80
2023/05/25 09:35:22;;;;;;;13.30;4.70;;;;;;;;;;10578423;27;20058;-79
2023/05/25 09:40:26;;;;;;;12.40;5.43;;;;;;;;;;10571695;27;20100;-84
2023/05/25 09:45:29;;;;;;;13.85;5.60;;;;;;;;;;10578805;27;20070;-82
2023/05/25 09:50:31;;;;;;;11.97;5.40;;;;;;;;;;10573544;27;20044;-82
2023/05/25 09:55:36;;;;;;;12.52;5.43;;;;;;;;;;10570884;27;20560;-83
2023/05/25 10:00:55;;;;;;;10.07;4.65;;;;;;;;;;10570415;27;20043;-83
2023/05/25 10:05:57;;;;;;;9.75;5.00;;;;;;;;;;10571978;27;20044;-83
2023/05/25 10:11:02;;;;;;;9.98;4.15;;;;;;;;;;10562629;27;20035;-84
2023/05/25 10:16:08;;;;;;;14.85;6.30;;;;;;;;;;10566686;27;20035;-83
2023/05/25 10:21:11;;;;;;;11.05;6.13;;;;;;;;;;10562943;27;20298;-83
2023/05/25 10:26:19;;;;;;;10.55;5.57;;;;;;;;;;10563383;27;20489;-83
2023/05/25 10:31:32;;;;;;;7.93;3.97;;;;;;;;;;10582130;27;20147;-83
2023/05/25 10:36:44;;;;;;;13.00;7.22;;;;;;;;;;10544671;28;20215;-83
2023/05/25 10:47:46;;;;;;;12.35;6.82;;;;;;;;;;10554973;28;20040;-83
2023/05/25 10:53:06;;;;;;;14.48;7.05;;;;;;;;;;10580174;27;20043;-84
2023/05/25 10:58:16;;;;;;;13.95;7.13;;;;;;;;;;10580581;27;20154;-83
2023/05/25 11:03:25;;;;;;;13.48;7.30;;;;;;;;;;10575024;27;20134;-83
2023/05/25 11:08:54;;;;;;;12.50;7.03;;;;;;;;;;10568180;27;20127;-83
2023/05/25 11:14:26;;;;;;;12.20;7.40;;;;;;;;;;10532378;27;20135;-84
2023/05/25 11:19:50;;;;;;;16.35;7.65;;;;;;;;;;10575066;27;20139;-84
2023/05/25 11:25:00;;;;;;;13.23;7.57;;;;;;;;;;10546088;27;20420;-82
2023/05/25 11:30:13;;;;;;;11.18;6.60;;;;;;;;;;10562986;27;20297;-82
2023/05/25 11:35:22;;;;;;;14.15;7.00;;;;;;;;;;10558706;27;20093;-84
2023/05/25 11:40:42;;;;;;;12.07;7.15;;;;;;;;;;10549250;27;20047;-84
2023/05/25 11:45:57;;;;;;;16.15;7.40;;;;;;;;;;10560387;27;20583;-83
2023/05/25 11:51:12;;;;;;;14.70;6.90;;;;;;;;;;10548477;27;20070;-83
2023/05/25 11:56:32;;;;;;;13.88;7.20;;;;;;;;;;10559329;27;20048;-83
2023/05/25 12:01:41;;;;;;;10.60;6.40;;;;;;;;;;10546257;27;20063;-83
2023/05/25 12:06:51;;;;;;;12.55;7.18;;;;;;;;;;10560439;27;20116;-82
2023/05/25 12:12:10;;;;;;;11.25;6.03;;;;;;;;;;10561594;27;20123;-82
2023/05/25 12:17:23;;;;;;;8.85;5.95;;;;;;;;;;10556177;27;20507;-83
2023/05/25 12:22:37;;;;;;;9.27;6.28;;;;;;;;;;10544897;27;20114;-82
2023/05/25 12:28:09;;;;;;;11.63;6.93;;;;;;;;;;10560574;27;20131;-82
2023/05/25 12:33:33;;;;;;;11.68;7.07;;;;;;;;;;10561436;27;20056;-82
2023/05/25 12:39:00;;;;;;;9.18;5.88;;;;;;;;;;10529981;27;20043;-82
2023/05/25 12:44:06;;;;;;;8.70;5.80;;;;;;;;;;10541494;27;20469;-82
2023/05/25 12:49:27;;;;;;;10.45;6.05;;;;;;;;;;10538939;27;20539;-82
2023/05/25 12:54:56;;;;;;;12.30;7.23;;;;;;;;;;10535741;27;20036;-82
2023/05/25 13:00:02;;;;;;;12.48;6.57;;;;;;;;;;10557410;27;20055;-83
2023/05/25 13:05:22;;;;;;;10.65;5.88;;;;;;;;;;10570089;27;20048;-82
2023/05/25 13:10:35;;;;;;;13.23;6.95;;;;;;;;;;10561164;27;20534;-82
2023/05/25 13:16:00;;;;;;;12.60;7.53;;;;;;;;;;10565907;27;20055;-82
2023/05/25 13:21:16;;;;;;;12.98;6.43;;;;;;;;;;10540401;27;20392;-82
2023/05/25 13:26:29;;;;;;;12.63;6.45;;;;;;;;;;10545669;27;20499;-83
2023/05/25 13:31:47;;;;;;;10.02;6.05;;;;;;;;;;10548487;27;20040;-84
2023/05/25 13:37:01;;;;;;;13.88;7.20;;;;;;;;;;10566001;27;20043;-84
2023/05/25 13:42:10;;;;;;;11.30;6.57;;;;;;;;;;10567152;27;20464;-83
2023/05/25 13:47:18;;;;;;;12.43;7.03;;;;;;;;;;10546009;27;20039;-84
2023/05/25 13:52:42;;;;;;;10.38;6.72;;;;;;;;;;10556441;27;20142;-84
2023/05/25 13:57:46;;;;;;;12.20;6.85;;;;;;;;;;10578457;27;20147;-83
2023/05/25 14:03:15;;;;;;;14.90;6.85;;;;;;;;;;10574373;27;20040;-84
2023/05/25 14:08:21;;;;;;;12.88;6.55;;;;;;;;;;10566322;27;20088;-83
2023/05/25 14:13:43;;;;;;;12.05;6.32;;;;;;;;;;10572472;27;20043;-83
2023/05/25 14:18:55;;;;;;;11.57;6.45;;;;;;;;;;10574528;27;20039;-83
2023/05/25 14:24:03;;;;;;;12.27;6.40;;;;;;;;;;10555917;28;20039;-84
2023/05/25 14:29:41;;;;;;;11.63;5.97;;;;;;;;;;10561759;27;20121;-84
2023/05/25 14:34:55;;;;;;;10.85;6.15;;;;;;;;;;10557314;27;20367;-83
2023/05/25 14:40:08;;;;;;;9.85;5.53;;;;;;;;;;10553891;28;20441;-83
2023/05/25 14:45:30;;;;;;;9.37;5.20;;;;;;;;;;10581288;28;20043;-84
2023/05/25 14:50:44;;;;;;;11.77;5.93;;;;;;;;;;10573760;28;20048;-82
2023/05/25 15:01:21;;;;;;;14.48;6.65;;;;;;;;;;10566492;28;20072;-83
2023/05/25 15:06:32;;;;;;;12.57;5.20;;;;;;;;;;10559421;28;20419;-84
2023/05/25 15:11:42;;;;;;;12.82;6.43;;;;;;;;;;10567551;28;20047;-83
2023/05/25 15:16:53;;;;;;;9.80;5.60;;;;;;;;;;10576687;28;20141;-84
2023/05/25 15:22:06;;;;;;;7.32;4.90;;;;;;;;;;10580176;28;20081;-83
2023/05/25 15:27:13;;;;;;;15.10;5.93;;;;;;;;;;10574402;28;20019;-84
2023/05/25 15:32:21;;;;;;;11.95;5.82;;;;;;;;;;10583585;28;20469;-84
2023/05/25 15:37:39;;;;;;;9.40;4.78;;;;;;;;;;10577864;27;20031;-83
2023/05/25 15:42:51;;;;;;;10.13;5.10;;;;;;;;;;10566316;27;20434;-84
2023/05/25 15:47:57;;;;;;;11.07;4.95;;;;;;;;;;10565626;27;20048;-85
2023/05/25 15:53:10;;;;;;;10.80;4.88;;;;;;;;;;10556985;27;20067;-83
2023/05/25 15:58:16;;;;;;;;;;;;;;;;;;10559713;27;20051;-84
2023/05/25 16:03:24;;;;;;;11.27;4.90;;;;;;;;;;10568963;27;20295;-83
2023/05/25 16:08:30;;;;;;;7.72;4.40;;;;;;;;;;10575905;27;20048;-84
2023/05/25 16:13:43;;;;;;;13.02;4.20;;;;;;;;;;10579628;27;20070;-84
2023/05/25 17:28:41;;;;;;;11.45;4.28;;;;;;;;;;10477687;27;20413;-82
2023/05/25 17:33:44;;;;;;;7.97;3.80;;;;;;;;;;10418087;27;20138;-81
2023/05/25 17:38:46;;;;;;;7.88;3.72;;;;;;;;;;10341386;28;20564;-78
2023/05/25 17:43:50;;;;;;;9.30;4.25;;;;;;;;;;10323863;28;20053;-79
2023/05/25 17:48:53;;;;;;;10.00;4.18;;;;;;;;;;10333561;28;20054;-79
2023/05/25 17:53:56;;;;;;;9.90;4.07;;;;;;;;;;10333041;28;20054;-75
2023/05/25 17:59:00;;;;;;;12.52;4.78;;;;;;;;;;10323575;28;20056;-77
2023/05/25 18:04:03;;;;;;;10.55;4.00;;;;;;;;;;10323305;28;20504;-75
2023/05/25 18:09:06;;;;;;;8.60;3.90;;;;;;;;;;10324129;28;20138;-75
2023/05/25 18:14:11;;;;;;;7.05;3.90;;;;;;;;;;10330702;28;20080;-77
2023/05/25 18:19:15;;;;;;;13.00;4.00;;;;;;;;;;10325414;28;21038;-76
2023/05/25 18:24:18;;;;;;;9.45;3.90;;;;;;;;;;10328983;28;20043;-75
2023/05/25 18:29:22;;;;;;;6.53;3.55;;;;;;;;;;10294552;28;20046;-75
2023/05/25 18:34:26;;;;;;;8.50;4.40;;;;;;;;;;10299816;28;20500;-76
2023/05/25 18:39:29;;;;;;;9.10;4.20;;;;;;;;;;10298027;28;20078;-76
2023/05/25 18:44:35;;;;;;;8.02;4.18;;;;;;;;;;10302849;28;20046;-77
2023/05/25 18:49:37;;;;;;;9.77;4.55;;;;;;;;;;10307503;28;20452;-76
2023/05/25 18:54:40;;;;;;;10.35;4.10;;;;;;;;;;10312150;28;20069;-78
2023/05/25 18:59:45;;;;;;;11.55;4.10;;;;;;;;;;10317579;28;20052;-79
2023/05/25 19:04:47;;;;;;;11.63;4.63;;;;;;;;;;10316313;28;20468;-78
2023/05/25 19:09:51;;;;;;;10.05;4.72;;;;;;;;;;10310720;28;20125;-78
2023/05/25 19:14:55;;;;;;;6.78;3.67;;;;;;;;;;10318185;28;20049;-77
2023/05/25 19:19:58;;;;;;;10.27;4.85;;;;;;;;;;10323529;28;20042;-78
2023/05/25 19:25:01;;;;;;;14.98;5.53;;;;;;;;;;10316995;28;20685;-77
2023/05/25 19:30:06;;;;;;;9.05;4.70;;;;;;;;;;10312440;28;20084;-77
2023/05/25 19:35:09;;;;;;;10.43;4.65;;;;;;;;;;10317392;28;20540;-78
2023/05/25 19:40:12;;;;;;;11.05;4.30;;;;;;;;;;10321000;28;20054;-78
2023/05/25 19:45:17;;;;;;;;;;;;;;;;;;10312979;28;20100;-76
2023/05/25 19:50:22;;;;;;;9.85;4.72;;;;;;;;;;10311666;28;19941;-76
2023/05/25 19:55:25;;;;;;;15.93;5.47;;;;;;;;;;10315021;28;20180;-78
2023/05/25 20:00:28;;;;;;;9.57;5.10;;;;;;;;;;10309622;28;20050;-78
2023/05/25 20:05:32;;;;;;;13.82;6.35;;;;;;;;;;10310391;28;20109;-78
2023/05/25 20:10:37;;;;;;;14.05;7.43;;;;;;;;;;10310407;28;20050;-78
2023/05/25 20:15:40;;;;;;;12.57;6.50;;;;;;;;;;10309619;28;20126;-79
2023/05/25 20:20:44;;;;;;;12.48;6.38;;;;;;;;;;10309097;28;20100;-78
2023/05/25 20:25:47;;;;;;;16.85;8.90;;;;;;;;;;10308403;28;20520;-78
2023/05/25 20:30:50;;;;;;;14.23;6.00;;;;;;;;;;10305902;28;20146;-77
2023/05/25 20:35:54;;;;;;;10.85;6.07;;;;;;;;;;10299896;28;20075;-78
2023/05/25 20:40:57;;;;;;;10.95;6.38;;;;;;;;;;10304004;28;20384;-80
2023/05/25 20:46:01;;;;;;;12.93;6.80;;;;;;;;;;10302567;28;20047;-79
2023/05/25 20:51:04;;;;;;;;;;;;;;;;;;10299290;28;20049;-80
2023/05/25 20:56:08;;;;;;;14.45;7.28;;;;;;;;;;10302752;28;19925;-81
2023/05/25 21:01:11;;;;;;;28.27;15.15;;;;;;;;;;10304006;28;20284;-78
2023/05/25 21:06:14;;;;;;;13.37;7.33;;;;;;;;;;10305378;28;20030;-78
2023/05/25 21:11:22;;;;;;;11.35;7.00;;;;;;;;;;10304032;28;20122;-79
2023/05/25 21:16:25;;;;;;;15.27;6.68;;;;;;;;;;10313004;28;20047;-80
2023/05/25 21:21:32;;;;;;;16.33;7.32;;;;;;;;;;10306070;28;20040;-78
2023/05/25 21:26:36;;;;;;;14.70;7.28;;;;;;;;;;10303028;28;20096;-79
2023/05/25 21:31:39;;;;;;;15.52;6.80;;;;;;;;;;10316706;28;20066;-77
2023/05/25 21:36:42;;;;;;;16.07;7.10;;;;;;;;;;10315303;28;20528;-77
2023/05/25 21:41:46;;;;;;;16.33;7.10;;;;;;;;;;10308357;28;20047;-79
2023/05/25 21:46:57;;;;;;;14.43;7.22;;;;;;;;;;10313241;28;20042;-78
2023/05/25 21:52:00;;;;;;;14.80;7.07;;;;;;;;;;10308539;28;20201;-79
2023/05/25 21:57:04;;;;;;;15.85;7.63;;;;;;;;;;10298989;28;20034;-78
2023/05/25 22:02:07;;;;;;;13.93;6.97;;;;;;;;;;10302191;28;20169;-78
2023/05/25 22:07:10;;;;;;;17.15;8.20;;;;;;;;;;10310671;28;20073;-78
2023/05/25 22:12:16;;;;;;;15.10;6.90;;;;;;;;;;10304547;28;20244;-79
2023/05/25 22:17:19;;;;;;;14.90;6.57;;;;;;;;;;10305334;28;20098;-78
2023/05/25 22:22:23;;;;;;;15.75;7.28;;;;;;;;;;10314101;28;20111;-78
2023/05/25 22:27:27;;;;;;;20.27;7.05;;;;;;;;;;10319776;28;20068;-80
2023/05/25 22:32:31;;;;;;;13.00;6.82;;;;;;;;;;10311222;28;20070;-78
2023/05/25 22:37:33;;;;;;;13.17;6.70;;;;;;;;;;10310009;28;20038;-78
2023/05/25 22:42:38;;;;;;;16.48;6.75;;;;;;;;;;10309682;28;20298;-78
2023/05/25 22:47:41;;;;;;;15.48;6.93;;;;;;;;;;10307184;28;20041;-77
2023/05/25 22:52:44;;;;;;;14.50;7.63;;;;;;;;;;10305920;28;20065;-78
2023/05/25 22:57:49;;;;;;;15.13;6.93;;;;;;;;;;10304562;28;20515;-79
2023/05/25 23:02:52;;;;;;;14.48;6.95;;;;;;;;;;10304141;28;20073;-79
2023/05/25 23:07:57;;;;;;;17.40;7.50;;;;;;;;;;10304918;28;20122;-78
2023/05/25 23:13:01;;;;;;;15.02;7.30;;;;;;;;;;10301092;28;20055;-78
2023/05/25 23:18:04;;;;;;;15.48;7.25;;;;;;;;;;10308486;28;20145;-78
2023/05/25 23:23:07;;;;;;;15.17;7.23;;;;;;;;;;10298000;28;20327;-78
2023/05/25 23:28:11;;;;;;;13.75;6.72;;;;;;;;;;10305228;28;20049;-78
2023/05/25 23:33:14;;;;;;;18.67;6.22;;;;;;;;;;10302242;28;20145;-79
2023/05/25 23:38:16;;;;;;;14.50;6.47;;;;;;;;;;10301232;28;20075;-80
2023/05/25 23:43:21;;;;;;;14.98;6.78;;;;;;;;;;10308404;28;20038;-80
2023/05/25 23:48:24;;;;;;;14.70;6.47;;;;;;;;;;10304541;28;20038;-80
2023/05/25 23:53:26;;;;;;;16.90;7.37;;;;;;;;;;10295343;28;20125;-80
2023/05/25 23:58:30;;;;;;;19.10;7.70;;;;;;;;;;10296472;28;20192;-79
